Isabella — 9HSL7 — position and weather

sailwx.info

Track history (hours):
 
Tides and Currents Weather Stations Pressure Air Temp Water Temp Dewpoint Dewpoint Depression Visibility Wind Speed Wind Dir Waves Ship Positions

Isabella

Last reported at 2016-Sep-26 02:22 UTC. Time now 2016-Sep-26 08:45 UTC.
Position N 51°54' E 003°31'.

Length 244 m; draft 12.7 m.

Type: Tanker. MMSI: 215545000.

Date/timePositionNaut miles runAvg speedWind from/ knotsBaromVisibWave heightAir tempDewpointWater temp
2016-Sep-26 02:22N 51°54' E 003°31'3 0.3
2016-Sep-25 17:20N 51°55' E 003°28'810.1
2016-Sep-25 16:31N 51°53' E 003°15'1111.7
2016-Sep-25 15:33N 51°50' E 002°57'1211.7
2016-Sep-25 14:33N 51°46' E 002°39'2412.2
2016-Sep-25 12:33N 51°28' E 002°13'1312.9
2016-Sep-25 11:33N 51°16' E 002°06'1313.2
2016-Sep-25 10:33N 51°09' E 001°48'1414.2
2016-Sep-25 09:33N 50°59' E 001°32'6512.6
2016-Sep-25 04:25N 50°20' E 000°11'5514.3
2016-Sep-25 00:33N 50°06' W 001°13'6011.9
2016-Sep-24 19:31N 49°50' W 002°43'1211.5
2016-Sep-24 18:28N 49°46' W 003°01'1111.9
2016-Sep-24 17:34N 49°41' W 003°15'8912.7
2016-Sep-24 10:33N 48°55' W 005°13'1313.3
2016-Sep-24 09:33N 48°49' W 005°31'  
2016-Sep-22 04:33N 38°31' W 009°52'1211.6
2016-Sep-22 03:33N 38°19' W 009°49'3511.6
2016-Sep-22 00:33N 37°45' W 009°39'16110.6
2016-Sep-21 09:27N 36°10' W 006°57'6911.7
2016-Sep-21 03:33N 35°58' W 005°33'1010.6
2016-Sep-21 02:33N 36°01' W 005°21'10011.1
2016-Sep-20 17:33N 36°17' W 003°18'3812.6
2016-Sep-20 14:33N 36°23' W 002°32'  
2016-Sep-18 02:33N 37°15' E 012°46'1312.9
2016-Sep-18 01:32N 37°08' E 013°00'1612.8
2016-Sep-18 00:19N 36°60' E 013°17'2212.4
2016-Sep-17 22:34N 36°48' E 013°40'1212.0
2016-Sep-17 21:34N 36°41' E 013°52'1212.0
2016-Sep-17 20:34N 36°35' E 014°05'1612.3
2016-Sep-17 19:16N 36°27' E 014°22'43512.2
2016-Sep-16 07:33N 36°38' E 023°24'4912.4
2016-Sep-16 03:33N 37°20' E 023°56'1312.7
2016-Sep-16 02:30N 37°32' E 024°05'  
Track history (hours):
 
Tides and Currents Weather Stations Pressure Air Temp Water Temp Dewpoint Dewpoint Depression Visibility Wind Speed Wind Dir Waves Ship Positions

Isabella

Last reported at 2016-Sep-26 02:22 UTC. Time now 2016-Sep-26 08:45 UTC.
Position N 51°54' E 003°31'.

Length 244 m; draft 12.7 m.

Type: Tanker. MMSI: 215545000.

Date/timePositionNaut miles runAvg speedWind from/ knotsBaromVisibWave heightAir tempDewpointWater temp
2016-Sep-26 02:22N 51°54' E 003°31'3 0.3
2016-Sep-25 17:20N 51°55' E 003°28'810.1
2016-Sep-25 16:31N 51°53' E 003°15'1111.7
2016-Sep-25 15:33N 51°50' E 002°57'1211.7
2016-Sep-25 14:33N 51°46' E 002°39'2412.2
2016-Sep-25 12:33N 51°28' E 002°13'1312.9
2016-Sep-25 11:33N 51°16' E 002°06'1313.2
2016-Sep-25 10:33N 51°09' E 001°48'1414.2
2016-Sep-25 09:33N 50°59' E 001°32'6512.6
2016-Sep-25 04:25N 50°20' E 000°11'5514.3
2016-Sep-25 00:33N 50°06' W 001°13'6011.9
2016-Sep-24 19:31N 49°50' W 002°43'1211.5
2016-Sep-24 18:28N 49°46' W 003°01'1111.9
2016-Sep-24 17:34N 49°41' W 003°15'8912.7
2016-Sep-24 10:33N 48°55' W 005°13'1313.3
2016-Sep-24 09:33N 48°49' W 005°31'  
2016-Sep-22 04:33N 38°31' W 009°52'1211.6
2016-Sep-22 03:33N 38°19' W 009°49'3511.6
2016-Sep-22 00:33N 37°45' W 009°39'16110.6
2016-Sep-21 09:27N 36°10' W 006°57'6911.7
2016-Sep-21 03:33N 35°58' W 005°33'1010.6
2016-Sep-21 02:33N 36°01' W 005°21'10011.1
2016-Sep-20 17:33N 36°17' W 003°18'3812.6
2016-Sep-20 14:33N 36°23' W 002°32'  
2016-Sep-18 02:33N 37°15' E 012°46'1312.9
2016-Sep-18 01:32N 37°08' E 013°00'1612.8
2016-Sep-18 00:19N 36°60' E 013°17'2212.4
2016-Sep-17 22:34N 36°48' E 013°40'1212.0
2016-Sep-17 21:34N 36°41' E 013°52'1212.0
2016-Sep-17 20:34N 36°35' E 014°05'1612.3
2016-Sep-17 19:16N 36°27' E 014°22'43512.2
2016-Sep-16 07:33N 36°38' E 023°24'4912.4
2016-Sep-16 03:33N 37°20' E 023°56'1312.7
2016-Sep-16 02:30N 37°32' E 024°05'  

Dump ship's entire track history